Alfordsville, Indiana
Current Conditions -  °F | °C
As of 3:55 PM on Thursday 27 Nov 2014 (Local Time) from KDCY Reporting Station
Light Snow Light Snow  
Wind Chill: 22°   Ceiling: 4100
Heat Index: 29°   Visibility: 10mi
Dew Point: 25°   Wind: 7mph
Humidity: 86%   Direction: 290°WNW
Pressure: 30.43"   Gusts: NA
Location:  38.6074°N, 86.9234°W
Report Text: KDCY 272155Z AUTO 29006KT 10SM -SN SCT026 SCT032 OVC041 M02/M04 A3043 RMK AO2 T10161037
Loading
Personal Weather Stations






























Interactive Weather Map New forecast layout! Learn more

10-Day Weather Forecast

Advertisements
Track Severe Weather on mobile